Terminal Aerodrome Forecast
Issued by NWS Detroit/Pontiac, MI

Home | Current Version | Previous Version | Text Only | Print | Product List | Glossary On
Versions: 1 2 3 4 5 6 7 8 9 10 11 12 13 14 15 16 17 18 19 20 21 22 23 24
824
FTUS43 KDTX 260535
TAFDTW
TAF
KDTW 260535Z 2606/2712 16007KT P6SM OVC070
     FM260700 18007KT 6SM -SHRA OVC070
      TEMPO 2607/2610 4SM RA OVC035
     FM261000 20007KT 4SM BR BKN035 OVC070
     FM261400 20010KT P6SM SCT070
     FM262000 21012KT P6SM BKN070=

USA.gov is the U.S. government's official web portal to all federal, state and local government web resources and services.